sensor_id;sensor_type;location;lat;lon;timestamp;P1;durP1;ratioP1;P2;durP2;ratioP2
66559;SDS011;53413;49.878;8.142;2023-11-21T00:02:24;3.83;;;0.82;;
66559;SDS011;53413;49.878;8.142;2023-11-21T00:04:50;3.37;;;1.00;;
66559;SDS011;53413;49.878;8.142;2023-11-21T00:07:15;4.40;;;0.90;;
66559;SDS011;53413;49.878;8.142;2023-11-21T00:09:41;4.10;;;0.80;;
66559;SDS011;53413;49.878;8.142;2023-11-21T00:12:06;2.65;;;0.80;;
66559;SDS011;53413;49.878;8.142;2023-11-21T00:14:35;4.73;;;1.10;;
66559;SDS011;53413;49.878;8.142;2023-11-21T00:17:01;3.20;;;0.80;;
66559;SDS011;53413;49.878;8.142;2023-11-21T00:19:27;4.50;;;1.00;;
66559;SDS011;53413;49.878;8.142;2023-11-21T00:21:52;3.83;;;0.90;;
66559;SDS011;53413;49.878;8.142;2023-11-21T00:24:17;3.23;;;1.00;;
66559;SDS011;53413;49.878;8.142;2023-11-21T00:26:43;4.10;;;0.90;;
66559;SDS011;53413;49.878;8.142;2023-11-21T00:29:08;3.30;;;0.90;;
66559;SDS011;53413;49.878;8.142;2023-11-21T00:31:36;3.07;;;0.90;;
66559;SDS011;53413;49.878;8.142;2023-11-21T00:34:05;3.88;;;0.90;;
66559;SDS011;53413;49.878;8.142;2023-11-21T00:36:31;3.88;;;0.85;;
66559;SDS011;53413;49.878;8.142;2023-11-21T00:38:57;4.47;;;1.00;;
66559;SDS011;53413;49.878;8.142;2023-11-21T00:41:22;4.03;;;1.00;;
66559;SDS011;53413;49.878;8.142;2023-11-21T00:43:48;4.43;;;1.13;;
66559;SDS011;53413;49.878;8.142;2023-11-21T00:46:13;3.53;;;1.20;;
66559;SDS011;53413;49.878;8.142;2023-11-21T00:48:38;3.50;;;1.00;;
66559;SDS011;53413;49.878;8.142;2023-11-21T00:51:04;3.78;;;1.08;;
66559;SDS011;53413;49.878;8.142;2023-11-21T00:53:31;4.03;;;1.10;;
66559;SDS011;53413;49.878;8.142;2023-11-21T00:55:56;3.80;;;1.00;;
66559;SDS011;53413;49.878;8.142;2023-11-21T00:58:23;3.42;;;1.00;;
66559;SDS011;53413;49.878;8.142;2023-11-21T01:00:49;3.40;;;1.08;;
66559;SDS011;53413;49.878;8.142;2023-11-21T01:03:14;3.07;;;1.03;;
66559;SDS011;53413;49.878;8.142;2023-11-21T01:05:40;4.85;;;1.10;;
66559;SDS011;53413;49.878;8.142;2023-11-21T01:08:05;4.67;;;1.03;;
66559;SDS011;53413;49.878;8.142;2023-11-21T01:10:30;4.07;;;0.93;;
66559;SDS011;53413;49.878;8.142;2023-11-21T01:12:56;4.97;;;1.00;;
66559;SDS011;53413;49.878;8.142;2023-11-21T01:15:22;4.15;;;1.05;;
66559;SDS011;53413;49.878;8.142;2023-11-21T01:17:48;3.30;;;1.00;;
66559;SDS011;53413;49.878;8.142;2023-11-21T01:20:13;3.77;;;1.00;;
66559;SDS011;53413;49.878;8.142;2023-11-21T01:22:39;4.65;;;1.02;;
66559;SDS011;53413;49.878;8.142;2023-11-21T01:25:04;3.80;;;0.95;;
66559;SDS011;53413;49.878;8.142;2023-11-21T01:27:32;3.55;;;1.23;;
66559;SDS011;53413;49.878;8.142;2023-11-21T01:29:59;3.28;;;1.00;;
66559;SDS011;53413;49.878;8.142;2023-11-21T01:32:24;4.10;;;0.97;;
66559;SDS011;53413;49.878;8.142;2023-11-21T01:34:50;3.50;;;1.00;;
66559;SDS011;53413;49.878;8.142;2023-11-21T01:37:15;4.10;;;1.10;;
66559;SDS011;53413;49.878;8.142;2023-11-21T01:39:42;3.42;;;1.10;;
66559;SDS011;53413;49.878;8.142;2023-11-21T01:42:10;4.38;;;1.10;;
66559;SDS011;53413;49.878;8.142;2023-11-21T01:44:37;4.45;;;1.20;;
66559;SDS011;53413;49.878;8.142;2023-11-21T01:47:03;3.67;;;1.10;;
66559;SDS011;53413;49.878;8.142;2023-11-21T01:49:32;3.63;;;0.97;;
66559;SDS011;53413;49.878;8.142;2023-11-21T01:51:58;4.15;;;1.35;;
66559;SDS011;53413;49.878;8.142;2023-11-21T01:54:24;3.97;;;1.20;;
66559;SDS011;53413;49.878;8.142;2023-11-21T01:56:50;3.53;;;1.17;;
66559;SDS011;53413;49.878;8.142;2023-11-21T01:59:18;3.53;;;1.20;;
66559;SDS011;53413;49.878;8.142;2023-11-21T02:01:46;4.75;;;1.00;;
66559;SDS011;53413;49.878;8.142;2023-11-21T02:04:12;3.38;;;1.13;;
66559;SDS011;53413;49.878;8.142;2023-11-21T02:06:38;3.50;;;1.10;;
66559;SDS011;53413;49.878;8.142;2023-11-21T02:09:04;4.03;;;1.10;;
66559;SDS011;53413;49.878;8.142;2023-11-21T02:11:29;4.15;;;1.20;;
66559;SDS011;53413;49.878;8.142;2023-11-21T02:13:55;4.40;;;1.20;;
66559;SDS011;53413;49.878;8.142;2023-11-21T02:16:20;4.53;;;1.30;;
66559;SDS011;53413;49.878;8.142;2023-11-21T02:18:47;4.13;;;1.40;;
66559;SDS011;53413;49.878;8.142;2023-11-21T02:21:13;4.57;;;1.15;;
66559;SDS011;53413;49.878;8.142;2023-11-21T02:23:39;4.65;;;1.20;;
66559;SDS011;53413;49.878;8.142;2023-11-21T02:26:09;5.20;;;1.40;;
66559;SDS011;53413;49.878;8.142;2023-11-21T02:28:34;3.97;;;1.40;;
66559;SDS011;53413;49.878;8.142;2023-11-21T02:31:00;4.93;;;1.40;;
66559;SDS011;53413;49.878;8.142;2023-11-21T02:33:27;4.40;;;1.40;;
66559;SDS011;53413;49.878;8.142;2023-11-21T02:35:53;5.27;;;1.60;;
66559;SDS011;53413;49.878;8.142;2023-11-21T02:38:20;4.40;;;1.63;;
66559;SDS011;53413;49.878;8.142;2023-11-21T02:40:46;4.43;;;1.60;;
66559;SDS011;53413;49.878;8.142;2023-11-21T02:43:11;6.27;;;1.77;;
66559;SDS011;53413;49.878;8.142;2023-11-21T02:45:36;5.50;;;1.97;;
66559;SDS011;53413;49.878;8.142;2023-11-21T02:48:02;4.80;;;1.73;;
66559;SDS011;53413;49.878;8.142;2023-11-21T02:50:27;5.32;;;1.90;;
66559;SDS011;53413;49.878;8.142;2023-11-21T02:52:52;7.40;;;2.33;;
66559;SDS011;53413;49.878;8.142;2023-11-21T02:55:18;7.73;;;2.43;;
66559;SDS011;53413;49.878;8.142;2023-11-21T02:57:44;7.20;;;2.40;;
66559;SDS011;53413;49.878;8.142;2023-11-21T03:00:09;8.30;;;2.88;;
66559;SDS011;53413;49.878;8.142;2023-11-21T03:02:37;7.93;;;2.83;;
66559;SDS011;53413;49.878;8.142;2023-11-21T03:05:04;9.43;;;2.97;;
66559;SDS011;53413;49.878;8.142;2023-11-21T03:07:30;8.63;;;3.28;;
66559;SDS011;53413;49.878;8.142;2023-11-21T03:09:56;8.03;;;3.07;;
66559;SDS011;53413;49.878;8.142;2023-11-21T03:12:21;9.00;;;3.10;;
66559;SDS011;53413;49.878;8.142;2023-11-21T03:14:46;10.40;;;3.17;;
66559;SDS011;53413;49.878;8.142;2023-11-21T03:17:12;8.55;;;3.03;;
66559;SDS011;53413;49.878;8.142;2023-11-21T03:19:41;9.10;;;3.30;;
66559;SDS011;53413;49.878;8.142;2023-11-21T03:22:06;9.40;;;3.15;;
66559;SDS011;53413;49.878;8.142;2023-11-21T03:24:32;9.63;;;3.20;;
66559;SDS011;53413;49.878;8.142;2023-11-21T03:26:57;9.33;;;3.20;;
66559;SDS011;53413;49.878;8.142;2023-11-21T03:29:22;8.97;;;3.30;;
66559;SDS011;53413;49.878;8.142;2023-11-21T03:31:47;9.30;;;2.90;;
66559;SDS011;53413;49.878;8.142;2023-11-21T03:34:23;9.23;;;3.20;;
66559;SDS011;53413;49.878;8.142;2023-11-21T03:36:52;10.35;;;3.63;;
66559;SDS011;53413;49.878;8.142;2023-11-21T03:39:19;10.60;;;3.40;;
66559;SDS011;53413;49.878;8.142;2023-11-21T03:41:45;11.50;;;3.72;;
66559;SDS011;53413;49.878;8.142;2023-11-21T03:44:10;11.03;;;3.70;;
66559;SDS011;53413;49.878;8.142;2023-11-21T03:46:36;11.23;;;3.80;;
66559;SDS011;53413;49.878;8.142;2023-11-21T03:49:01;10.90;;;3.67;;
66559;SDS011;53413;49.878;8.142;2023-11-21T03:51:27;11.07;;;3.70;;
66559;SDS011;53413;49.878;8.142;2023-11-21T03:53:52;11.47;;;3.70;;
66559;SDS011;53413;49.878;8.142;2023-11-21T03:56:17;8.43;;;3.17;;
66559;SDS011;53413;49.878;8.142;2023-11-21T03:58:43;10.47;;;3.30;;
66559;SDS011;53413;49.878;8.142;2023-11-21T04:01:08;9.02;;;3.05;;
66559;SDS011;53413;49.878;8.142;2023-11-21T04:03:33;8.98;;;2.88;;
66559;SDS011;53413;49.878;8.142;2023-11-21T04:05:59;8.87;;;2.73;;
66559;SDS011;53413;49.878;8.142;2023-11-21T04:08:26;10.33;;;3.57;;
66559;SDS011;53413;49.878;8.142;2023-11-21T04:10:51;9.25;;;3.28;;
66559;SDS011;53413;49.878;8.142;2023-11-21T04:13:18;10.57;;;3.50;;
66559;SDS011;53413;49.878;8.142;2023-11-21T04:15:44;10.85;;;3.25;;
66559;SDS011;53413;49.878;8.142;2023-11-21T04:18:09;10.07;;;3.43;;
66559;SDS011;53413;49.878;8.142;2023-11-21T04:20:35;11.60;;;3.70;;
66559;SDS011;53413;49.878;8.142;2023-11-21T04:23:00;12.53;;;4.13;;
66559;SDS011;53413;49.878;8.142;2023-11-21T04:25:25;10.97;;;3.90;;
66559;SDS011;53413;49.878;8.142;2023-11-21T04:27:52;13.35;;;4.18;;
66559;SDS011;53413;49.878;8.142;2023-11-21T04:30:17;10.67;;;3.43;;
66559;SDS011;53413;49.878;8.142;2023-11-21T04:32:43;9.97;;;3.40;;
66559;SDS011;53413;49.878;8.142;2023-11-21T04:35:08;10.53;;;3.13;;
66559;SDS011;53413;49.878;8.142;2023-11-21T04:37:34;11.02;;;3.40;;
66559;SDS011;53413;49.878;8.142;2023-11-21T04:39:59;10.17;;;3.23;;
66559;SDS011;53413;49.878;8.142;2023-11-21T04:42:25;10.17;;;3.10;;
66559;SDS011;53413;49.878;8.142;2023-11-21T04:44:50;8.80;;;2.67;;
66559;SDS011;53413;49.878;8.142;2023-11-21T04:47:17;7.70;;;2.60;;
66559;SDS011;53413;49.878;8.142;2023-11-21T04:49:45;10.07;;;2.70;;
66559;SDS011;53413;49.878;8.142;2023-11-21T04:52:12;9.25;;;3.00;;
66559;SDS011;53413;49.878;8.142;2023-11-21T04:54:37;10.37;;;3.17;;
66559;SDS011;53413;49.878;8.142;2023-11-21T04:57:02;8.80;;;3.17;;
66559;SDS011;53413;49.878;8.142;2023-11-21T04:59:29;9.50;;;3.22;;
66559;SDS011;53413;49.878;8.142;2023-11-21T05:01:54;9.20;;;3.30;;
66559;SDS011;53413;49.878;8.142;2023-11-21T05:04:20;9.70;;;3.13;;
66559;SDS011;53413;49.878;8.142;2023-11-21T05:06:47;9.20;;;3.10;;
66559;SDS011;53413;49.878;8.142;2023-11-21T05:09:12;11.10;;;3.80;;
66559;SDS011;53413;49.878;8.142;2023-11-21T05:11:38;11.13;;;3.77;;
66559;SDS011;53413;49.878;8.142;2023-11-21T05:14:04;10.35;;;3.67;;
66559;SDS011;53413;49.878;8.142;2023-11-21T05:16:30;9.82;;;3.55;;
66559;SDS011;53413;49.878;8.142;2023-11-21T05:18:56;10.93;;;4.10;;
66559;SDS011;53413;49.878;8.142;2023-11-21T05:21:26;10.73;;;4.22;;
66559;SDS011;53413;49.878;8.142;2023-11-21T05:23:52;10.23;;;4.00;;
66559;SDS011;53413;49.878;8.142;2023-11-21T05:26:17;10.07;;;3.80;;
66559;SDS011;53413;49.878;8.142;2023-11-21T05:28:42;10.27;;;3.90;;
66559;SDS011;53413;49.878;8.142;2023-11-21T05:31:08;8.47;;;3.37;;
66559;SDS011;53413;49.878;8.142;2023-11-21T05:33:33;8.93;;;3.53;;
66559;SDS011;53413;49.878;8.142;2023-11-21T05:35:58;8.17;;;3.27;;
66559;SDS011;53413;49.878;8.142;2023-11-21T05:38:24;8.27;;;3.03;;
66559;SDS011;53413;49.878;8.142;2023-11-21T05:40:49;7.40;;;2.80;;
66559;SDS011;53413;49.878;8.142;2023-11-21T05:43:15;7.57;;;3.07;;
66559;SDS011;53413;49.878;8.142;2023-11-21T05:45:40;8.38;;;3.03;;
66559;SDS011;53413;49.878;8.142;2023-11-21T05:48:05;7.20;;;2.67;;
66559;SDS011;53413;49.878;8.142;2023-11-21T05:50:31;7.80;;;2.70;;
66559;SDS011;53413;49.878;8.142;2023-11-21T05:52:57;6.80;;;2.50;;
66559;SDS011;53413;49.878;8.142;2023-11-21T05:55:25;6.25;;;2.50;;
66559;SDS011;53413;49.878;8.142;2023-11-21T05:57:50;7.13;;;2.20;;
66559;SDS011;53413;49.878;8.142;2023-11-21T06:00:16;5.78;;;2.10;;
66559;SDS011;53413;49.878;8.142;2023-11-21T06:02:45;6.38;;;2.20;;
66559;SDS011;53413;49.878;8.142;2023-11-21T06:05:11;6.47;;;2.20;;
66559;SDS011;53413;49.878;8.142;2023-11-21T06:07:37;5.53;;;2.10;;
66559;SDS011;53413;49.878;8.142;2023-11-21T06:10:03;6.30;;;2.30;;
66559;SDS011;53413;49.878;8.142;2023-11-21T06:12:36;5.43;;;2.00;;
66559;SDS011;53413;49.878;8.142;2023-11-21T06:15:05;6.43;;;2.50;;
66559;SDS011;53413;49.878;8.142;2023-11-21T06:17:33;6.22;;;2.38;;
66559;SDS011;53413;49.878;8.142;2023-11-21T06:20:02;6.57;;;2.40;;
66559;SDS011;53413;49.878;8.142;2023-11-21T06:22:44;6.10;;;2.50;;
66559;SDS011;53413;49.878;8.142;2023-11-21T06:25:11;6.57;;;2.33;;
66559;SDS011;53413;49.878;8.142;2023-11-21T06:27:41;6.82;;;2.90;;
66559;SDS011;53413;49.878;8.142;2023-11-21T06:30:08;6.93;;;2.53;;
66559;SDS011;53413;49.878;8.142;2023-11-21T06:32:34;6.60;;;2.50;;
66559;SDS011;53413;49.878;8.142;2023-11-21T06:35:03;7.60;;;2.60;;
66559;SDS011;53413;49.878;8.142;2023-11-21T06:37:29;6.95;;;2.70;;
66559;SDS011;53413;49.878;8.142;2023-11-21T06:39:56;8.43;;;2.65;;
66559;SDS011;53413;49.878;8.142;2023-11-21T06:42:23;9.07;;;3.40;;
66559;SDS011;53413;49.878;8.142;2023-11-21T06:44:49;7.73;;;3.00;;
66559;SDS011;53413;49.878;8.142;2023-11-21T06:47:16;7.63;;;2.88;;
66559;SDS011;53413;49.878;8.142;2023-11-21T06:49:42;8.07;;;3.05;;
66559;SDS011;53413;49.878;8.142;2023-11-21T06:52:08;8.47;;;2.80;;
66559;SDS011;53413;49.878;8.142;2023-11-21T06:54:33;8.93;;;2.88;;
66559;SDS011;53413;49.878;8.142;2023-11-21T06:56:59;6.47;;;2.50;;
66559;SDS011;53413;49.878;8.142;2023-11-21T06:59:25;6.72;;;2.30;;
66559;SDS011;53413;49.878;8.142;2023-11-21T07:01:50;6.63;;;2.40;;
66559;SDS011;53413;49.878;8.142;2023-11-21T07:04:16;7.33;;;2.63;;
66559;SDS011;53413;49.878;8.142;2023-11-21T07:06:41;7.97;;;2.60;;
66559;SDS011;53413;49.878;8.142;2023-11-21T07:09:08;7.05;;;2.63;;
66559;SDS011;53413;49.878;8.142;2023-11-21T07:11:34;7.37;;;2.90;;
66559;SDS011;53413;49.878;8.142;2023-11-21T07:14:00;7.65;;;2.90;;
66559;SDS011;53413;49.878;8.142;2023-11-21T07:16:30;7.50;;;2.95;;
66559;SDS011;53413;49.878;8.142;2023-11-21T07:18:55;7.57;;;2.90;;
66559;SDS011;53413;49.878;8.142;2023-11-21T07:21:21;7.50;;;2.90;;
66559;SDS011;53413;49.878;8.142;2023-11-21T07:23:46;7.67;;;2.77;;
66559;SDS011;53413;49.878;8.142;2023-11-21T07:26:11;7.43;;;2.90;;
66559;SDS011;53413;49.878;8.142;2023-11-21T07:28:37;7.28;;;2.72;;
66559;SDS011;53413;49.878;8.142;2023-11-21T07:31:02;7.37;;;2.87;;
66559;SDS011;53413;49.878;8.142;2023-11-21T07:33:28;7.53;;;2.97;;
66559;SDS011;53413;49.878;8.142;2023-11-21T07:35:53;6.47;;;2.60;;
66559;SDS011;53413;49.878;8.142;2023-11-21T07:38:19;7.47;;;2.90;;
66559;SDS011;53413;49.878;8.142;2023-11-21T07:40:44;7.60;;;2.90;;
66559;SDS011;53413;49.878;8.142;2023-11-21T07:43:09;6.87;;;2.70;;
66559;SDS011;53413;49.878;8.142;2023-11-21T07:45:35;7.43;;;2.83;;
66559;SDS011;53413;49.878;8.142;2023-11-21T07:48:01;5.93;;;2.50;;
66559;SDS011;53413;49.878;8.142;2023-11-21T07:50:28;6.22;;;2.47;;
66559;SDS011;53413;49.878;8.142;2023-11-21T07:52:53;7.60;;;2.80;;
66559;SDS011;53413;49.878;8.142;2023-11-21T07:55:19;6.80;;;2.70;;
66559;SDS011;53413;49.878;8.142;2023-11-21T07:57:45;6.50;;;2.50;;
66559;SDS011;53413;49.878;8.142;2023-11-21T08:00:10;7.10;;;2.70;;
66559;SDS011;53413;49.878;8.142;2023-11-21T08:02:37;7.47;;;2.92;;
66559;SDS011;53413;49.878;8.142;2023-11-21T08:05:10;7.97;;;3.03;;
66559;SDS011;53413;49.878;8.142;2023-11-21T08:07:36;7.93;;;3.00;;
66559;SDS011;53413;49.878;8.142;2023-11-21T08:10:02;7.40;;;2.60;;
66559;SDS011;53413;49.878;8.142;2023-11-21T08:12:29;7.40;;;2.78;;
66559;SDS011;53413;49.878;8.142;2023-11-21T08:14:55;7.87;;;2.83;;
66559;SDS011;53413;49.878;8.142;2023-11-21T08:17:20;7.20;;;2.90;;
66559;SDS011;53413;49.878;8.142;2023-11-21T08:19:45;8.43;;;3.07;;
66559;SDS011;53413;49.878;8.142;2023-11-21T08:22:14;7.07;;;2.90;;
66559;SDS011;53413;49.878;8.142;2023-11-21T08:24:43;6.57;;;2.60;;
66559;SDS011;53413;49.878;8.142;2023-11-21T08:27:09;5.50;;;2.40;;
66559;SDS011;53413;49.878;8.142;2023-11-21T08:29:34;6.40;;;2.58;;
66559;SDS011;53413;49.878;8.142;2023-11-21T08:32:01;7.78;;;2.40;;
66559;SDS011;53413;49.878;8.142;2023-11-21T08:34:27;6.70;;;2.60;;
66559;SDS011;53413;49.878;8.142;2023-11-21T08:36:53;5.10;;;2.17;;
66559;SDS011;53413;49.878;8.142;2023-11-21T08:39:18;5.75;;;2.20;;
66559;SDS011;53413;49.878;8.142;2023-11-21T08:41:44;5.40;;;2.10;;
66559;SDS011;53413;49.878;8.142;2023-11-21T08:44:09;5.57;;;2.10;;
66559;SDS011;53413;49.878;8.142;2023-11-21T08:46:35;4.85;;;2.05;;
66559;SDS011;53413;49.878;8.142;2023-11-21T08:49:03;4.90;;;2.00;;
66559;SDS011;53413;49.878;8.142;2023-11-21T08:51:28;4.53;;;1.53;;
66559;SDS011;53413;49.878;8.142;2023-11-21T08:53:54;4.83;;;1.60;;
66559;SDS011;53413;49.878;8.142;2023-11-21T08:56:19;5.63;;;1.60;;
66559;SDS011;53413;49.878;8.142;2023-11-21T08:58:45;4.20;;;1.60;;
66559;SDS011;53413;49.878;8.142;2023-11-21T09:01:12;3.88;;;1.50;;
66559;SDS011;53413;49.878;8.142;2023-11-21T09:03:37;3.90;;;1.55;;
66559;SDS011;53413;49.878;8.142;2023-11-21T09:06:03;4.30;;;1.60;;
66559;SDS011;53413;49.878;8.142;2023-11-21T09:08:29;6.72;;;1.67;;
66559;SDS011;53413;49.878;8.142;2023-11-21T09:10:55;4.57;;;1.60;;
66559;SDS011;53413;49.878;8.142;2023-11-21T09:13:20;3.93;;;1.43;;
66559;SDS011;53413;49.878;8.142;2023-11-21T09:15:45;4.57;;;1.67;;
66559;SDS011;53413;49.878;8.142;2023-11-21T09:18:14;5.80;;;1.67;;
66559;SDS011;53413;49.878;8.142;2023-11-21T09:20:40;5.43;;;1.80;;
66559;SDS011;53413;49.878;8.142;2023-11-21T09:23:05;4.63;;;1.70;;
66559;SDS011;53413;49.878;8.142;2023-11-21T09:25:32;5.22;;;1.50;;
66559;SDS011;53413;49.878;8.142;2023-11-21T09:27:57;4.37;;;1.60;;
66559;SDS011;53413;49.878;8.142;2023-11-21T09:30:23;5.70;;;1.43;;
66559;SDS011;53413;49.878;8.142;2023-11-21T09:32:49;4.60;;;1.65;;
66559;SDS011;53413;49.878;8.142;2023-11-21T09:35:15;4.20;;;1.60;;
66559;SDS011;53413;49.878;8.142;2023-11-21T09:37:43;4.28;;;1.50;;
66559;SDS011;53413;49.878;8.142;2023-11-21T09:40:10;6.40;;;1.70;;
66559;SDS011;53413;49.878;8.142;2023-11-21T09:42:39;5.28;;;1.40;;
66559;SDS011;53413;49.878;8.142;2023-11-21T09:45:13;4.55;;;1.55;;
66559;SDS011;53413;49.878;8.142;2023-11-21T09:47:45;4.60;;;1.60;;
66559;SDS011;53413;49.878;8.142;2023-11-21T09:50:11;4.05;;;1.50;;
66559;SDS011;53413;49.878;8.142;2023-11-21T09:55:31;6.03;;;1.67;;
66559;SDS011;53413;49.878;8.142;2023-11-21T09:58:05;5.65;;;1.70;;
66559;SDS011;53413;49.878;8.142;2023-11-21T10:00:36;5.10;;;1.60;;
66559;SDS011;53413;49.878;8.142;2023-11-21T10:03:05;4.97;;;1.60;;
66559;SDS011;53413;49.878;8.142;2023-11-21T10:05:30;4.47;;;1.60;;
66559;SDS011;53413;49.878;8.142;2023-11-21T10:07:59;6.72;;;1.70;;
66559;SDS011;53413;49.878;8.142;2023-11-21T10:10:25;4.70;;;1.60;;
66559;SDS011;53413;49.878;8.142;2023-11-21T10:12:55;5.35;;;1.80;;
66559;SDS011;53413;49.878;8.142;2023-11-21T10:15:22;5.28;;;1.60;;
66559;SDS011;53413;49.878;8.142;2023-11-21T10:17:51;7.27;;;1.80;;
66559;SDS011;53413;49.878;8.142;2023-11-21T10:20:18;4.75;;;1.80;;
66559;SDS011;53413;49.878;8.142;2023-11-21T10:22:44;5.07;;;1.60;;
66559;SDS011;53413;49.878;8.142;2023-11-21T10:25:11;4.38;;;1.73;;
66559;SDS011;53413;49.878;8.142;2023-11-21T10:27:39;4.45;;;1.70;;
66559;SDS011;53413;49.878;8.142;2023-11-21T10:30:06;6.50;;;1.90;;
66559;SDS011;53413;49.878;8.142;2023-11-21T10:32:41;5.80;;;1.70;;
66559;SDS011;53413;49.878;8.142;2023-11-21T10:35:08;5.47;;;1.80;;
66559;SDS011;53413;49.878;8.142;2023-11-21T10:37:37;6.20;;;2.05;;
66559;SDS011;53413;49.878;8.142;2023-11-21T10:40:08;6.43;;;1.77;;
66559;SDS011;53413;49.878;8.142;2023-11-21T10:42:38;5.87;;;1.80;;
66559;SDS011;53413;49.878;8.142;2023-11-21T10:45:04;6.28;;;1.80;;
66559;SDS011;53413;49.878;8.142;2023-11-21T10:47:37;5.38;;;1.90;;
66559;SDS011;53413;49.878;8.142;2023-11-21T10:50:03;5.70;;;1.67;;
66559;SDS011;53413;49.878;8.142;2023-11-21T10:52:29;5.15;;;1.80;;
66559;SDS011;53413;49.878;8.142;2023-11-21T10:54:54;5.97;;;1.90;;
66559;SDS011;53413;49.878;8.142;2023-11-21T10:57:20;5.23;;;1.90;;
66559;SDS011;53413;49.878;8.142;2023-11-21T10:59:48;5.88;;;2.00;;
66559;SDS011;53413;49.878;8.142;2023-11-21T11:02:24;6.00;;;2.17;;
66559;SDS011;53413;49.878;8.142;2023-11-21T11:04:53;5.43;;;1.85;;
66559;SDS011;53413;49.878;8.142;2023-11-21T11:07:25;4.63;;;1.90;;
66559;SDS011;53413;49.878;8.142;2023-11-21T11:09:52;6.03;;;2.00;;
66559;SDS011;53413;49.878;8.142;2023-11-21T11:12:19;6.20;;;2.40;;
66559;SDS011;53413;49.878;8.142;2023-11-21T11:14:45;6.85;;;2.00;;
66559;SDS011;53413;49.878;8.142;2023-11-21T11:17:10;7.50;;;2.33;;
66559;SDS011;53413;49.878;8.142;2023-11-21T11:19:36;7.30;;;2.13;;
66559;SDS011;53413;49.878;8.142;2023-11-21T11:33:45;7.55;;;2.40;;
66559;SDS011;53413;49.878;8.142;2023-11-21T11:36:29;5.75;;;2.10;;
66559;SDS011;53413;49.878;8.142;2023-11-21T11:39:03;5.70;;;2.08;;
66559;SDS011;53413;49.878;8.142;2023-11-21T11:41:48;6.05;;;2.00;;
66559;SDS011;53413;49.878;8.142;2023-11-21T11:47:29;5.88;;;1.85;;
66559;SDS011;53413;49.878;8.142;2023-11-21T11:55:05;4.82;;;1.63;;
66559;SDS011;53413;49.878;8.142;2023-11-21T11:57:35;7.70;;;1.80;;
66559;SDS011;53413;49.878;8.142;2023-11-21T12:02:45;5.45;;;1.75;;
66559;SDS011;53413;49.878;8.142;2023-11-21T12:05:13;5.10;;;1.55;;
66559;SDS011;53413;49.878;8.142;2023-11-21T12:07:52;4.90;;;1.58;;
66559;SDS011;53413;49.878;8.142;2023-11-21T12:10:19;4.30;;;1.60;;
66559;SDS011;53413;49.878;8.142;2023-11-21T12:12:48;5.15;;;1.70;;
66559;SDS011;53413;49.878;8.142;2023-11-21T12:15:14;5.82;;;1.85;;
66559;SDS011;53413;49.878;8.142;2023-11-21T12:17:43;4.50;;;1.70;;
66559;SDS011;53413;49.878;8.142;2023-11-21T12:20:10;4.80;;;1.73;;
66559;SDS011;53413;49.878;8.142;2023-11-21T12:25:17;5.90;;;1.55;;
66559;SDS011;53413;49.878;8.142;2023-11-21T12:27:48;5.47;;;1.55;;
66559;SDS011;53413;49.878;8.142;2023-11-21T12:30:15;4.25;;;1.70;;
66559;SDS011;53413;49.878;8.142;2023-11-21T12:32:43;4.93;;;1.70;;
66559;SDS011;53413;49.878;8.142;2023-11-21T12:35:11;5.30;;;1.65;;
66559;SDS011;53413;49.878;8.142;2023-11-21T12:37:40;4.68;;;1.77;;
66559;SDS011;53413;49.878;8.142;2023-11-21T12:40:09;6.38;;;1.90;;
66559;SDS011;53413;49.878;8.142;2023-11-21T12:42:46;5.30;;;1.70;;
66559;SDS011;53413;49.878;8.142;2023-11-21T12:47:47;6.32;;;1.73;;
66559;SDS011;53413;49.878;8.142;2023-11-21T12:50:28;5.40;;;1.73;;
66559;SDS011;53413;49.878;8.142;2023-11-21T12:53:03;5.40;;;1.50;;
66559;SDS011;53413;49.878;8.142;2023-11-21T12:55:30;5.33;;;1.70;;
66559;SDS011;53413;49.878;8.142;2023-11-21T12:57:57;5.53;;;1.73;;
66559;SDS011;53413;49.878;8.142;2023-11-21T13:00:34;6.25;;;1.95;;
66559;SDS011;53413;49.878;8.142;2023-11-21T13:03:04;5.78;;;1.73;;
66559;SDS011;53413;49.878;8.142;2023-11-21T13:05:36;6.38;;;1.73;;
66559;SDS011;53413;49.878;8.142;2023-11-21T13:08:15;5.53;;;1.80;;
66559;SDS011;53413;49.878;8.142;2023-11-21T13:10:44;5.97;;;1.80;;
66559;SDS011;53413;49.878;8.142;2023-11-21T13:13:12;6.63;;;2.20;;
66559;SDS011;53413;49.878;8.142;2023-11-21T13:15:48;6.53;;;1.90;;
66559;SDS011;53413;49.878;8.142;2023-11-21T13:18:15;4.97;;;1.90;;
66559;SDS011;53413;49.878;8.142;2023-11-21T13:20:42;5.50;;;1.90;;
66559;SDS011;53413;49.878;8.142;2023-11-21T13:23:11;5.88;;;2.03;;
66559;SDS011;53413;49.878;8.142;2023-11-21T13:25:37;6.13;;;2.10;;
66559;SDS011;53413;49.878;8.142;2023-11-21T13:28:06;9.13;;;2.40;;
66559;SDS011;53413;49.878;8.142;2023-11-21T13:30:32;7.47;;;2.20;;
66559;SDS011;53413;49.878;8.142;2023-11-21T13:33:00;6.38;;;2.40;;
66559;SDS011;53413;49.878;8.142;2023-11-21T13:35:30;7.15;;;2.20;;
66559;SDS011;53413;49.878;8.142;2023-11-21T13:38:02;6.63;;;2.60;;
66559;SDS011;53413;49.878;8.142;2023-11-21T13:40:32;7.30;;;2.57;;
66559;SDS011;53413;49.878;8.142;2023-11-21T13:43:00;7.25;;;2.20;;
66559;SDS011;53413;49.878;8.142;2023-11-21T13:45:29;6.90;;;2.20;;
66559;SDS011;53413;49.878;8.142;2023-11-21T13:47:55;8.68;;;2.60;;
66559;SDS011;53413;49.878;8.142;2023-11-21T13:50:24;7.10;;;2.30;;
66559;SDS011;53413;49.878;8.142;2023-11-21T13:52:57;7.30;;;2.50;;
66559;SDS011;53413;49.878;8.142;2023-11-21T13:55:29;7.88;;;2.50;;
66559;SDS011;53413;49.878;8.142;2023-11-21T13:57:54;8.33;;;2.77;;
66559;SDS011;53413;49.878;8.142;2023-11-21T14:00:19;6.87;;;2.60;;
66559;SDS011;53413;49.878;8.142;2023-11-21T14:03:06;6.97;;;2.28;;
66559;SDS011;53413;49.878;8.142;2023-11-21T14:05:41;6.47;;;2.40;;
66559;SDS011;53413;49.878;8.142;2023-11-21T14:08:08;7.90;;;2.80;;
66559;SDS011;53413;49.878;8.142;2023-11-21T14:10:33;7.00;;;2.67;;
66559;SDS011;53413;49.878;8.142;2023-11-21T14:13:15;8.35;;;2.60;;
66559;SDS011;53413;49.878;8.142;2023-11-21T14:15:41;8.27;;;2.70;;
66559;SDS011;53413;49.878;8.142;2023-11-21T14:18:10;7.80;;;2.65;;
66559;SDS011;53413;49.878;8.142;2023-11-21T14:20:39;6.97;;;2.60;;
66559;SDS011;53413;49.878;8.142;2023-11-21T14:23:05;6.78;;;2.58;;
66559;SDS011;53413;49.878;8.142;2023-11-21T14:25:35;6.82;;;2.50;;
66559;SDS011;53413;49.878;8.142;2023-11-21T14:28:07;7.00;;;2.53;;
66559;SDS011;53413;49.878;8.142;2023-11-21T14:30:32;8.63;;;2.75;;
66559;SDS011;53413;49.878;8.142;2023-11-21T14:33:00;8.00;;;2.43;;
66559;SDS011;53413;49.878;8.142;2023-11-21T14:35:26;7.13;;;2.55;;
66559;SDS011;53413;49.878;8.142;2023-11-21T14:37:52;7.95;;;2.70;;
66559;SDS011;53413;49.878;8.142;2023-11-21T14:40:18;6.97;;;2.57;;
66559;SDS011;53413;49.878;8.142;2023-11-21T14:42:49;7.10;;;2.50;;
66559;SDS011;53413;49.878;8.142;2023-11-21T14:45:17;7.43;;;2.60;;
66559;SDS011;53413;49.878;8.142;2023-11-21T14:47:44;8.15;;;2.50;;
66559;SDS011;53413;49.878;8.142;2023-11-21T14:50:18;6.85;;;2.50;;
66559;SDS011;53413;49.878;8.142;2023-11-21T14:53:01;9.38;;;2.40;;
66559;SDS011;53413;49.878;8.142;2023-11-21T14:55:30;8.32;;;2.55;;
66559;SDS011;53413;49.878;8.142;2023-11-21T14:58:03;8.27;;;2.80;;
66559;SDS011;53413;49.878;8.142;2023-11-21T15:00:29;6.43;;;2.67;;
66559;SDS011;53413;49.878;8.142;2023-11-21T15:03:01;7.60;;;2.70;;
66559;SDS011;53413;49.878;8.142;2023-11-21T15:05:27;8.43;;;2.45;;
66559;SDS011;53413;49.878;8.142;2023-11-21T15:07:53;7.00;;;2.40;;
66559;SDS011;53413;49.878;8.142;2023-11-21T15:10:33;7.73;;;2.47;;
66559;SDS011;53413;49.878;8.142;2023-11-21T15:13:13;7.53;;;2.60;;
66559;SDS011;53413;49.878;8.142;2023-11-21T15:15:40;6.85;;;2.40;;
66559;SDS011;53413;49.878;8.142;2023-11-21T15:18:06;7.63;;;2.40;;